Snellman, Minnesota
Current Conditions -  °F | °C
As of 4:53 AM on Saturday 22 Nov 2014 (Local Time) from KPKD Reporting Station
Clear Clear  
Wind Chill: 15°   Ceiling: Unl
Heat Index: 21°   Visibility: 8mi
Dew Point: 20°   Wind: 5mph
Humidity: 96%   Direction: 190°S
Pressure: 29.65"   Gusts: NA
Location:  46.9347°N, 95.2252°W
Report Text: KPKD 221053Z AUTO 19004KT 8SM CLR M06/M07 A2965 RMK AO2 SLP063 I1000 T10611067
Loading
Personal Weather Stations






























Interactive Weather Map New forecast layout! Learn more

10-Day Weather Forecast

Advertisements
Track Severe Weather on mobile